createdAt,value
2023-01-23T00:00:05.720Z,189.05
2023-01-23T00:02:07.309Z,211.85
2023-01-23T00:04:10.366Z,207.38
2023-01-23T00:06:12.944Z,162.23
2023-01-23T00:08:14.556Z,166.27
2023-01-23T00:10:16.232Z,153.23
2023-01-23T00:12:17.682Z,165.38
2023-01-23T00:14:19.137Z,154.27
2023-01-23T00:16:21.749Z,138.80
2023-01-23T00:18:23.354Z,136.95
2023-01-23T00:20:30.687Z,156.68
2023-01-23T00:22:32.303Z,131.57
2023-01-23T00:24:39.997Z,150.52
2023-01-23T00:26:41.690Z,137.40
2023-01-23T00:29:03.136Z,132.00
2023-01-23T00:31:13.104Z,131.50
2023-01-23T00:33:20.220Z,143.20
2023-01-23T00:35:22.149Z,140.82
2023-01-23T00:37:23.661Z,116.82
2023-01-23T00:39:25.205Z,118.15
2023-01-23T00:41:26.902Z,122.22
2023-01-23T00:43:28.620Z,118.95
2023-01-23T00:45:33.048Z,110.40
2023-01-23T00:47:34.550Z,121.18
2023-01-23T00:49:57.516Z,124.63
2023-01-23T00:51:59.010Z,112.93
2023-01-23T00:54:00.779Z,120.32
2023-01-23T00:56:02.435Z,121.90
2023-01-23T00:58:22.616Z,118.47
2023-01-23T01:00:26.703Z,110.85
2023-01-23T01:02:28.274Z,114.10
2023-01-23T01:06:33.997Z,111.45
2023-01-23T01:08:35.673Z,108.95
2023-01-23T01:10:40.668Z,110.85
2023-01-23T01:12:45.176Z,107.18
2023-01-23T01:14:46.715Z,115.90
2023-01-23T01:16:51.101Z,118.45
2023-01-23T01:18:52.642Z,116.07
2023-01-23T01:20:54.424Z,110.35
2023-01-23T01:22:57.404Z,104.20
2023-01-23T01:24:58.930Z,103.95
2023-01-23T01:27:02.954Z,104.28
2023-01-23T01:29:07.364Z,98.72
2023-01-23T01:31:10.734Z,105.35
2023-01-23T01:33:12.346Z,106.50
2023-01-23T01:35:32.422Z,97.75
2023-01-23T01:37:37.897Z,100.93
2023-01-23T01:39:39.409Z,111.03
2023-01-23T01:41:40.878Z,93.57
2023-01-23T01:43:42.747Z,94.15
2023-01-23T01:45:56.139Z,92.20
2023-01-23T01:47:57.736Z,95.47
2023-01-23T01:50:04.218Z,92.80
2023-01-23T01:52:13.020Z,83.28
2023-01-23T01:54:14.467Z,89.68
2023-01-23T01:56:17.840Z,85.95
2023-01-23T01:58:19.756Z,82.57
2023-01-23T02:00:24.640Z,96.35
2023-01-23T02:02:40.676Z,93.55
2023-01-23T02:04:45.124Z,82.78
2023-01-23T02:06:46.608Z,102.40
2023-01-23T02:09:14.515Z,93.70
2023-01-23T02:11:18.523Z,92.20
2023-01-23T02:13:21.844Z,93.05
2023-01-23T02:15:23.480Z,87.10
2023-01-23T02:17:25.356Z,91.40
2023-01-23T02:19:37.521Z,84.03
2023-01-23T02:21:43.418Z,83.75
2023-01-23T02:24:13.848Z,85.03
2023-01-23T02:26:45.483Z,79.35
2023-01-23T02:28:59.811Z,83.25
2023-01-23T02:31:16.116Z,78.70
2023-01-23T02:33:43.593Z,89.15
2023-01-23T02:35:50.127Z,82.88
2023-01-23T02:37:55.829Z,76.75
2023-01-23T02:39:59.308Z,82.53
2023-01-23T02:42:10.186Z,81.15
2023-01-23T02:44:18.401Z,79.75
2023-01-23T02:48:31.016Z,87.63
2023-01-23T02:50:40.636Z,75.50
2023-01-23T02:52:51.393Z,77.45
2023-01-23T02:55:02.491Z,81.40
2023-01-23T02:57:05.750Z,76.00
2023-01-23T02:59:28.970Z,83.00
2023-01-23T03:01:49.019Z,85.50
2023-01-23T03:03:56.653Z,86.22
2023-01-23T03:05:59.265Z,75.57
2023-01-23T03:08:00.843Z,74.80
2023-01-23T03:10:05.815Z,85.25
2023-01-23T03:12:07.340Z,81.70
2023-01-23T03:14:16.400Z,77.20
2023-01-23T03:16:17.902Z,75.30
2023-01-23T03:18:19.896Z,84.05
2023-01-23T03:20:24.356Z,71.90
2023-01-23T03:22:26.528Z,84.95
2023-01-23T03:24:46.735Z,74.70
2023-01-23T03:26:48.891Z,81.13
2023-01-23T03:29:14.879Z,83.03
2023-01-23T03:31:22.293Z,74.80
2023-01-23T03:33:23.861Z,74.85
2023-01-23T03:35:31.616Z,79.55
2023-01-23T03:37:36.048Z,70.18
2023-01-23T03:40:02.509Z,75.55
2023-01-23T03:42:04.208Z,66.35
2023-01-23T03:44:11.647Z,64.93
2023-01-23T03:46:13.464Z,66.10
2023-01-23T03:48:15.070Z,71.70
2023-01-23T03:50:20.012Z,68.93
2023-01-23T03:52:21.760Z,71.65
2023-01-23T03:54:23.289Z,71.40
2023-01-23T03:56:24.911Z,62.90
2023-01-23T03:58:26.459Z,67.53
2023-01-23T04:00:27.967Z,67.05
2023-01-23T04:02:29.549Z,73.70
2023-01-23T04:04:31.889Z,72.47
2023-01-23T04:06:33.515Z,66.88
2023-01-23T04:08:40.959Z,69.78
2023-01-23T04:10:42.429Z,72.38
2023-01-23T04:12:43.983Z,73.38
2023-01-23T04:14:48.255Z,61.47
2023-01-23T04:16:53.943Z,68.43
2023-01-23T04:18:58.257Z,64.88
2023-01-23T04:20:59.877Z,67.78
2023-01-23T04:23:01.369Z,70.40
2023-01-23T04:25:02.964Z,73.05
2023-01-23T04:27:07.220Z,68.63
2023-01-23T04:29:27.604Z,67.38
2023-01-23T04:31:35.341Z,67.15
2023-01-23T04:33:39.834Z,64.80
2023-01-23T04:35:54.539Z,61.08
2023-01-23T04:38:15.054Z,62.08
2023-01-23T04:40:16.778Z,65.10
2023-01-23T04:42:24.574Z,62.92
2023-01-23T04:44:27.026Z,64.22
2023-01-23T04:46:31.437Z,60.75
2023-01-23T04:48:32.917Z,65.85
2023-01-23T04:50:34.492Z,59.40
2023-01-23T04:52:39.091Z,61.22
2023-01-23T04:54:43.693Z,62.35
2023-01-23T04:57:03.791Z,57.50
2023-01-23T04:59:05.550Z,62.13
2023-01-23T05:01:07.694Z,67.25
2023-01-23T05:03:12.240Z,68.22
2023-01-23T05:05:21.185Z,67.15
2023-01-23T05:07:26.016Z,55.30
2023-01-23T05:09:27.556Z,60.92
2023-01-23T05:11:29.811Z,67.65
2023-01-23T05:13:34.587Z,60.10
2023-01-23T05:15:36.233Z,57.47
2023-01-23T05:17:37.799Z,70.28
2023-01-23T05:19:42.294Z,56.72
2023-01-23T05:21:43.742Z,65.18
2023-01-23T05:24:03.976Z,55.22
2023-01-23T05:26:05.632Z,63.13
2023-01-23T05:28:11.648Z,58.13
2023-01-23T05:30:32.147Z,62.45
2023-01-23T05:32:35.296Z,63.25
2023-01-23T05:34:42.098Z,62.72
2023-01-23T05:36:48.170Z,52.35
2023-01-23T05:38:57.864Z,57.15
2023-01-23T05:41:01.392Z,59.95
2023-01-23T05:43:04.739Z,56.88
2023-01-23T05:45:08.781Z,60.40
2023-01-23T05:47:12.421Z,52.78
2023-01-23T05:49:15.123Z,59.08
2023-01-23T05:51:21.088Z,56.03
2023-01-23T05:53:30.334Z,57.55
2023-01-23T05:55:33.700Z,52.87
2023-01-23T05:57:40.131Z,51.80
2023-01-23T05:59:49.827Z,58.55
2023-01-23T06:01:54.200Z,55.72
2023-01-23T06:03:55.838Z,60.22
2023-01-23T06:05:57.293Z,51.92
2023-01-23T06:08:17.182Z,53.08
2023-01-23T06:10:18.971Z,56.80
2023-01-23T06:12:26.470Z,49.35
2023-01-23T06:16:34.892Z,50.22
2023-01-23T06:18:39.030Z,54.40
2023-01-23T06:20:40.553Z,53.92
2023-01-23T06:22:42.101Z,51.63
2023-01-23T06:24:49.572Z,53.85
2023-01-23T06:28:55.246Z,43.78
2023-01-23T06:31:00.337Z,50.63
2023-01-23T06:33:04.483Z,56.72
2023-01-23T06:35:06.183Z,52.08
2023-01-23T06:37:07.607Z,49.72
2023-01-23T06:39:13.460Z,52.95
2023-01-23T06:41:19.837Z,51.40
2023-01-23T06:43:27.429Z,50.90
2023-01-23T06:45:29.014Z,49.88
2023-01-23T06:47:33.462Z,47.08
2023-01-23T06:49:35.202Z,54.50
2023-01-23T06:51:55.677Z,49.90
2023-01-23T06:54:00.202Z,45.63
2023-01-23T06:56:05.567Z,46.92
2023-01-23T06:58:07.234Z,58.05
2023-01-23T07:00:09.941Z,52.40
2023-01-23T07:02:17.247Z,50.22
2023-01-23T07:06:25.714Z,52.05
2023-01-23T07:08:30.748Z,47.42
2023-01-23T07:10:38.156Z,45.67
2023-01-23T07:12:42.222Z,46.55
2023-01-23T07:14:43.668Z,46.47
2023-01-23T07:16:48.101Z,47.40
2023-01-23T07:18:52.436Z,46.42
2023-01-23T07:20:56.745Z,42.90
2023-01-23T07:23:00.808Z,44.72
2023-01-23T07:25:21.110Z,43.28
2023-01-23T07:27:22.608Z,51.80
2023-01-23T07:29:26.979Z,49.03
2023-01-23T07:31:28.556Z,48.08
2023-01-23T07:33:48.630Z,50.47
2023-01-23T07:35:50.255Z,52.72
2023-01-23T07:37:51.860Z,46.15
2023-01-23T07:39:53.581Z,55.72
2023-01-23T07:41:57.980Z,50.47
2023-01-23T07:43:59.425Z,47.10
2023-01-23T07:46:19.846Z,45.90
2023-01-23T07:48:21.530Z,47.30
2023-01-23T07:50:23.216Z,45.97
2023-01-23T07:52:24.805Z,43.67
2023-01-23T07:54:26.320Z,36.97
2023-01-23T07:56:27.880Z,46.63
2023-01-23T07:58:29.398Z,46.33
2023-01-23T08:00:33.746Z,42.65
2023-01-23T08:02:38.386Z,43.10
2023-01-23T08:04:42.700Z,41.88
2023-01-23T08:06:47.053Z,41.53
2023-01-23T08:08:51.370Z,38.35
2023-01-23T08:10:55.596Z,35.58
2023-01-23T08:12:57.073Z,37.97
2023-01-23T08:15:01.399Z,41.30
2023-01-23T08:17:02.924Z,42.67
2023-01-23T08:21:11.549Z,40.42
2023-01-23T08:23:15.961Z,38.15
2023-01-23T08:25:21.043Z,43.92
2023-01-23T08:27:25.063Z,46.33
2023-01-23T08:29:30.839Z,54.17
2023-01-23T08:31:32.364Z,49.42
2023-01-23T08:33:35.885Z,45.17
2023-01-23T08:35:38.626Z,41.83
2023-01-23T08:37:43.279Z,41.17
2023-01-23T08:39:49.710Z,45.20
2023-01-23T08:42:11.857Z,43.90
2023-01-23T08:44:18.191Z,46.47
2023-01-23T08:46:21.712Z,46.08
2023-01-23T08:48:42.767Z,50.28
2023-01-23T08:50:49.569Z,44.85
2023-01-23T08:52:56.709Z,45.63
2023-01-23T08:55:00.303Z,50.47
2023-01-23T08:57:07.205Z,59.22
2023-01-23T08:59:14.674Z,60.95
2023-01-23T09:01:20.509Z,69.70
2023-01-23T09:03:28.664Z,51.90
2023-01-23T09:05:32.018Z,53.42
2023-01-23T09:07:38.872Z,57.50
2023-01-23T09:09:58.657Z,51.35
2023-01-23T09:12:00.107Z,46.22
2023-01-23T09:14:04.129Z,50.47
2023-01-23T09:16:08.201Z,43.05
2023-01-23T09:18:12.270Z,53.00
2023-01-23T09:20:13.821Z,54.72
2023-01-23T09:22:33.847Z,47.53
2023-01-23T09:26:43.568Z,51.53
2023-01-23T09:28:47.806Z,47.78
2023-01-23T09:30:52.342Z,54.45
2023-01-23T09:32:54.147Z,49.70
2023-01-23T09:34:55.677Z,44.20
2023-01-23T09:36:57.144Z,47.17
2023-01-23T09:38:58.624Z,50.17
2023-01-23T09:41:00.869Z,49.05
2023-01-23T09:43:05.342Z,45.10
2023-01-23T09:45:12.007Z,43.30
2023-01-23T09:47:16.565Z,39.05
2023-01-23T09:49:23.359Z,42.22
2023-01-23T09:53:44.904Z,52.95
2023-01-23T09:56:00.605Z,46.05
2023-01-23T09:58:03.769Z,46.53
2023-01-23T10:00:11.234Z,43.67
2023-01-23T10:02:20.221Z,41.67
2023-01-23T10:04:21.975Z,49.90
2023-01-23T10:06:25.076Z,44.38
2023-01-23T10:08:48.023Z,46.13
2023-01-23T10:11:08.506Z,45.50
2023-01-23T10:13:23.001Z,43.42
2023-01-23T10:15:33.738Z,38.88
2023-01-23T10:17:53.472Z,52.03
2023-01-23T10:20:16.792Z,38.30
2023-01-23T10:22:36.071Z,40.85
2023-01-23T10:24:45.357Z,39.97
2023-01-23T10:26:50.235Z,40.30
2023-01-23T10:28:54.475Z,43.53
2023-01-23T10:31:00.843Z,35.33
2023-01-23T10:33:15.396Z,39.00
2023-01-23T10:35:24.086Z,44.22
2023-01-23T10:37:45.646Z,35.60
2023-01-23T10:39:57.596Z,39.70
2023-01-23T10:42:02.984Z,39.13
2023-01-23T10:44:17.675Z,34.20
2023-01-23T10:46:20.862Z,31.40
2023-01-23T10:48:44.409Z,30.30
2023-01-23T10:50:48.513Z,32.42
2023-01-23T10:52:53.100Z,33.40
2023-01-23T10:54:57.323Z,32.28
2023-01-23T10:59:06.343Z,34.00
2023-01-23T11:01:27.494Z,32.30
2023-01-23T11:03:30.871Z,28.92
2023-01-23T11:05:43.523Z,29.30
2023-01-23T11:07:55.970Z,32.17
2023-01-23T11:10:09.503Z,29.80
2023-01-23T11:12:18.685Z,29.90
2023-01-23T11:14:24.149Z,25.73
2023-01-23T11:16:25.603Z,25.30
2023-01-23T11:19:04.566Z,26.55
2023-01-23T11:21:20.463Z,27.00
2023-01-23T11:23:29.477Z,26.15
2023-01-23T11:25:51.083Z,26.52
2023-01-23T11:28:13.961Z,25.35
2023-01-23T11:30:28.094Z,23.17
2023-01-23T11:32:58.852Z,23.75
2023-01-23T11:37:09.127Z,27.17
2023-01-23T11:39:35.672Z,23.85
2023-01-23T11:41:37.287Z,24.40
2023-01-23T11:43:45.480Z,29.17
2023-01-23T11:46:12.375Z,23.75
2023-01-23T11:48:35.525Z,22.95
2023-01-23T11:50:55.772Z,22.58
2023-01-23T11:52:59.151Z,25.83
2023-01-23T11:55:06.031Z,20.98
2023-01-23T11:57:26.869Z,23.48
2023-01-23T11:59:51.024Z,19.75
2023-01-23T12:02:17.113Z,18.83
2023-01-23T12:04:39.292Z,16.35
2023-01-23T12:07:11.866Z,17.80
2023-01-23T12:09:21.852Z,19.45
2023-01-23T12:11:25.854Z,13.98
2023-01-23T12:13:30.807Z,13.57
2023-01-23T12:16:00.692Z,14.75
2023-01-23T12:18:22.482Z,9.55
2023-01-23T12:20:38.886Z,15.13
2023-01-23T12:22:40.484Z,12.15
2023-01-23T12:24:54.020Z,9.75
2023-01-23T12:27:57.844Z,12.20
2023-01-23T12:30:33.365Z,16.17
2023-01-23T12:32:42.250Z,16.92
2023-01-23T12:34:49.792Z,16.23
2023-01-23T12:37:19.275Z,13.82
2023-01-23T12:39:52.117Z,11.27
2023-01-23T12:41:58.222Z,12.07
2023-01-23T12:44:08.887Z,17.10
2023-01-23T12:46:14.165Z,19.27
2023-01-23T12:48:30.844Z,17.17
2023-01-23T12:50:47.830Z,14.70
2023-01-23T12:52:59.765Z,13.13
2023-01-23T12:55:04.138Z,12.75
2023-01-23T12:57:05.981Z,10.93
2023-01-23T12:59:22.160Z,11.80
2023-01-23T13:01:28.476Z,9.90
2023-01-23T13:03:46.071Z,12.85
2023-01-23T13:06:01.946Z,10.18
2023-01-23T13:08:10.942Z,13.80
2023-01-23T13:10:52.353Z,13.57
2023-01-23T13:12:55.736Z,11.20
2023-01-23T13:15:17.314Z,16.77
2023-01-23T13:17:26.122Z,9.90
2023-01-23T13:19:58.952Z,12.73
2023-01-23T13:22:18.920Z,13.15
2023-01-23T13:24:49.081Z,16.05
2023-01-23T13:26:53.309Z,14.38
2023-01-23T13:29:02.559Z,15.50
2023-01-23T13:31:07.352Z,15.70
2023-01-23T13:33:30.381Z,16.13
2023-01-23T13:35:40.368Z,12.35
2023-01-23T13:37:50.999Z,13.02
2023-01-23T13:40:15.744Z,13.98
2023-01-23T13:42:22.598Z,13.25
2023-01-23T13:44:40.158Z,11.10
2023-01-23T14:21:57.524Z,15.68
2023-01-23T14:24:01.318Z,7.03
2023-01-23T14:26:06.095Z,8.73
2023-01-23T14:28:17.665Z,11.70
2023-01-23T14:30:28.216Z,5.88
2023-01-23T14:32:33.341Z,9.77
2023-01-23T14:34:53.563Z,8.13
2023-01-23T14:37:05.822Z,7.03
2023-01-23T14:39:21.002Z,3.75
2023-01-23T14:41:31.120Z,6.53
2023-01-23T14:43:37.145Z,5.35
2023-01-23T14:45:47.931Z,7.40
2023-01-23T14:48:04.631Z,6.50
2023-01-23T14:50:15.912Z,9.52
2023-01-23T14:52:28.917Z,6.60
2023-01-23T14:54:33.296Z,9.07
2023-01-23T14:56:39.426Z,6.53
2023-01-23T14:58:41.601Z,8.07
2023-01-23T15:00:46.427Z,9.55
2023-01-23T15:02:51.234Z,7.35
2023-01-23T15:05:09.425Z,17.80
2023-01-23T15:07:17.067Z,9.13
2023-01-23T15:09:37.507Z,9.75
2023-01-23T15:11:39.216Z,8.88
2023-01-23T15:13:51.503Z,7.63
2023-01-23T15:15:57.240Z,7.25
2023-01-23T15:18:03.057Z,9.63
2023-01-23T15:20:04.822Z,7.55
2023-01-23T15:22:28.666Z,9.35
2023-01-23T15:24:30.304Z,7.57
2023-01-23T15:28:49.471Z,8.82
2023-01-23T15:30:53.955Z,10.80
2023-01-23T15:32:56.151Z,12.38
2023-01-23T15:35:00.423Z,10.65
2023-01-23T15:37:11.060Z,11.77
2023-01-23T15:39:16.615Z,10.55
2023-01-23T15:41:33.698Z,9.75
2023-01-23T15:43:36.101Z,16.85
2023-01-23T15:45:37.942Z,11.65
2023-01-23T15:47:58.384Z,12.68
2023-01-23T15:50:06.088Z,11.65
2023-01-23T15:52:18.922Z,11.63
2023-01-23T15:54:28.684Z,13.13
2023-01-23T15:56:36.649Z,10.30
2023-01-23T15:58:41.234Z,12.25
2023-01-23T16:00:48.887Z,12.40
2023-01-23T16:02:56.663Z,12.90
2023-01-23T16:04:59.184Z,11.45
2023-01-23T16:07:03.351Z,13.68
2023-01-23T16:11:10.421Z,15.45
2023-01-23T16:13:13.736Z,17.25
2023-01-23T16:15:23.120Z,19.23
2023-01-23T16:17:24.769Z,12.82
2023-01-23T16:19:29.215Z,19.88
2023-01-23T16:21:31.111Z,18.63
2023-01-23T16:23:46.281Z,19.63
2023-01-23T16:25:54.828Z,15.88
2023-01-23T16:27:56.501Z,15.77
2023-01-23T16:30:04.147Z,16.38
2023-01-23T16:32:05.841Z,20.25
2023-01-23T16:34:13.476Z,17.38
2023-01-23T16:36:21.032Z,18.80
2023-01-23T16:38:24.043Z,20.05
2023-01-23T16:40:27.148Z,23.77
2023-01-23T16:42:34.474Z,22.67
2023-01-23T16:44:36.004Z,21.48
2023-01-23T16:46:37.564Z,18.70
2023-01-23T16:48:39.517Z,15.73
2023-01-23T16:50:45.604Z,19.02
2023-01-23T16:53:03.052Z,19.37
2023-01-23T16:55:35.143Z,23.13
2023-01-23T16:57:56.680Z,20.63
2023-01-23T16:59:58.315Z,20.20
2023-01-23T17:02:15.484Z,22.42
2023-01-23T17:04:23.575Z,18.92
2023-01-23T17:06:31.130Z,18.48
2023-01-23T17:11:00.654Z,23.85
2023-01-23T17:13:09.691Z,16.60
2023-01-23T17:15:22.377Z,16.85
2023-01-23T17:17:31.978Z,16.63
2023-01-23T17:19:35.478Z,19.50
2023-01-23T17:21:39.643Z,23.15
2023-01-23T17:23:41.664Z,19.52
2023-01-23T17:25:59.836Z,20.17
2023-01-23T17:28:21.404Z,24.25
2023-01-23T17:30:28.810Z,23.00
2023-01-23T17:32:39.242Z,18.70
2023-01-23T17:34:50.135Z,20.33
2023-01-23T17:36:56.340Z,22.23
2023-01-23T17:39:00.976Z,21.85
2023-01-23T17:41:04.722Z,20.38
2023-01-23T17:43:11.245Z,18.95
2023-01-23T17:45:14.635Z,15.50
2023-01-23T17:47:22.125Z,19.27
2023-01-23T17:49:54.327Z,24.90
2023-01-23T17:51:57.164Z,20.60
2023-01-23T17:54:08.409Z,30.55
2023-01-23T17:56:18.902Z,22.92
2023-01-23T17:58:22.787Z,25.05
2023-01-23T18:00:27.608Z,26.10
2023-01-23T18:02:32.786Z,30.35
2023-01-23T18:04:45.899Z,27.58
2023-01-23T18:06:54.118Z,34.13
2023-01-23T18:09:05.709Z,27.25
2023-01-23T18:11:22.926Z,27.40
2023-01-23T18:13:30.725Z,32.20
2023-01-23T18:16:01.327Z,31.20
2023-01-23T18:18:22.230Z,38.15
2023-01-23T18:20:28.536Z,30.05
2023-01-23T18:22:39.943Z,27.17
2023-01-23T18:24:46.157Z,26.75
2023-01-23T18:26:47.853Z,25.98
2023-01-23T18:28:52.348Z,28.17
2023-01-23T18:30:56.661Z,28.23
2023-01-23T18:33:19.339Z,24.17
2023-01-23T18:35:42.671Z,21.63
2023-01-23T18:37:55.357Z,29.02
2023-01-23T18:40:20.745Z,24.13
2023-01-23T18:42:31.344Z,29.83
2023-01-23T18:44:34.795Z,31.55
2023-01-23T18:46:36.603Z,33.27
2023-01-23T18:48:41.097Z,31.83
2023-01-23T18:50:58.250Z,31.85
2023-01-23T18:55:48.970Z,30.73
2023-01-23T18:57:55.944Z,31.02
2023-01-23T19:00:12.650Z,36.95
2023-01-23T19:02:19.591Z,37.58
2023-01-23T19:04:30.356Z,37.75
2023-01-23T19:06:35.081Z,37.28
2023-01-23T19:08:36.730Z,37.05
2023-01-23T19:10:48.420Z,36.05
2023-01-23T19:12:56.082Z,33.03
2023-01-23T19:15:06.700Z,38.15
2023-01-23T19:17:16.447Z,46.15
2023-01-23T19:19:19.734Z,42.60
2023-01-23T19:21:40.519Z,49.97
2023-01-23T19:23:46.565Z,46.00
2023-01-23T19:25:48.267Z,48.08
2023-01-23T19:27:57.074Z,46.15
2023-01-23T19:30:04.967Z,43.33
2023-01-23T19:32:25.275Z,45.55
2023-01-23T19:34:33.334Z,47.30
2023-01-23T19:36:36.103Z,50.47
2023-01-23T19:38:37.720Z,54.08
2023-01-23T19:40:40.028Z,53.22
2023-01-23T19:42:52.385Z,48.03
2023-01-23T19:45:00.590Z,49.47
2023-01-23T19:47:06.860Z,47.25
2023-01-23T19:49:08.889Z,45.75
2023-01-23T19:51:15.671Z,48.70
2023-01-23T19:53:18.552Z,53.05
2023-01-23T19:55:28.237Z,54.58
2023-01-23T19:57:48.582Z,56.53
2023-01-23T19:59:55.925Z,47.10
2023-01-23T20:01:57.427Z,49.03
2023-01-23T20:04:05.583Z,52.85
2023-01-23T20:06:07.268Z,50.80
2023-01-23T20:08:10.004Z,51.97
2023-01-23T20:10:30.414Z,53.20
2023-01-23T20:12:32.013Z,49.22
2023-01-23T20:14:33.439Z,50.85
2023-01-23T20:16:43.109Z,52.33
2023-01-23T20:18:48.125Z,49.25
2023-01-23T20:20:49.558Z,54.63
2023-01-23T20:23:09.610Z,52.40
2023-01-23T20:25:12.394Z,54.58
2023-01-23T20:27:20.225Z,54.53
2023-01-23T20:29:24.490Z,48.22
2023-01-23T20:31:29.028Z,54.05
2023-01-23T20:33:30.567Z,59.80
2023-01-23T20:35:38.483Z,55.40
2023-01-23T20:37:39.965Z,54.47
2023-01-23T20:39:44.412Z,49.03
2023-01-23T20:43:50.277Z,46.95
2023-01-23T20:45:52.802Z,57.33
2023-01-23T20:47:58.034Z,52.20
2023-01-23T20:50:18.168Z,55.75
2023-01-23T20:52:38.419Z,58.50
2023-01-23T20:54:39.840Z,60.83
2023-01-23T20:56:48.451Z,53.63
2023-01-23T20:59:10.401Z,55.33
2023-01-23T21:01:17.259Z,59.95
2023-01-23T21:03:23.436Z,65.38
2023-01-23T21:05:29.849Z,59.00
2023-01-23T21:07:40.400Z,56.70
2023-01-23T21:09:46.400Z,62.80
2023-01-23T21:11:51.994Z,63.28
2023-01-23T21:13:58.324Z,65.60
2023-01-23T21:16:09.489Z,62.88
2023-01-23T21:18:15.173Z,62.00
2023-01-23T21:20:39.965Z,57.42
2023-01-23T21:22:42.788Z,61.67
2023-01-23T21:24:45.332Z,61.45
2023-01-23T21:26:49.917Z,57.45
2023-01-23T21:28:59.355Z,64.53
2023-01-23T21:31:10.830Z,55.38
2023-01-23T21:33:15.327Z,61.55
2023-01-23T21:35:16.853Z,64.68
2023-01-23T21:37:22.034Z,62.45
2023-01-23T21:39:23.489Z,62.55
2023-01-23T21:41:30.956Z,54.85
2023-01-23T21:43:51.008Z,56.55
2023-01-23T21:45:57.087Z,63.03
2023-01-23T21:47:58.781Z,54.33
2023-01-23T21:50:00.301Z,56.25
2023-01-23T21:52:01.918Z,60.67
2023-01-23T21:54:03.457Z,49.22
2023-01-23T21:58:11.677Z,58.13
2023-01-23T22:00:32.058Z,57.75
2023-01-23T22:02:36.370Z,57.72
2023-01-23T22:06:45.448Z,69.75
2023-01-23T22:08:49.707Z,61.60
2023-01-23T22:10:51.187Z,60.70
2023-01-23T22:15:15.446Z,57.75
2023-01-23T22:17:16.969Z,61.13
2023-01-23T22:19:22.052Z,58.15
2023-01-23T22:21:27.905Z,59.78
2023-01-23T22:23:32.309Z,61.97
2023-01-23T22:25:33.747Z,57.72
2023-01-23T22:27:35.277Z,57.15
2023-01-23T22:29:39.616Z,61.92
2023-01-23T22:31:43.927Z,63.65
2023-01-23T22:33:48.754Z,58.80
2023-01-23T22:35:50.360Z,63.08
2023-01-23T22:37:54.833Z,59.53
2023-01-23T22:39:56.295Z,57.78
2023-01-23T22:42:02.730Z,61.35
2023-01-23T22:44:07.260Z,61.25
2023-01-23T22:46:10.488Z,65.60
2023-01-23T22:48:14.732Z,61.70
2023-01-23T22:50:17.098Z,57.90
2023-01-23T22:52:18.861Z,57.22
2023-01-23T22:54:20.391Z,55.65
2023-01-23T22:56:22.369Z,57.60
2023-01-23T22:58:30.194Z,58.13
2023-01-23T23:00:34.723Z,53.63
2023-01-23T23:02:42.007Z,60.83
2023-01-23T23:04:49.987Z,60.53
2023-01-23T23:06:51.460Z,62.80
2023-01-23T23:11:01.087Z,55.08
2023-01-23T23:13:02.707Z,55.90
2023-01-23T23:15:04.497Z,50.00
2023-01-23T23:17:09.039Z,54.22
2023-01-23T23:19:11.006Z,60.90
2023-01-23T23:21:14.029Z,56.67
2023-01-23T23:23:15.868Z,54.53
2023-01-23T23:25:17.494Z,55.53
2023-01-23T23:27:18.966Z,57.88
2023-01-23T23:29:20.417Z,64.18
2023-01-23T23:31:24.823Z,56.60
2023-01-23T23:33:27.004Z,55.60
2023-01-23T23:35:31.598Z,57.25
2023-01-23T23:37:33.053Z,56.33
2023-01-23T23:39:34.500Z,56.60
2023-01-23T23:41:36.243Z,55.28
2023-01-23T23:43:37.727Z,59.42
2023-01-23T23:45:39.431Z,56.97
2023-01-23T23:47:43.801Z,56.65
2023-01-23T23:49:45.246Z,55.10
2023-01-23T23:51:49.742Z,47.13
2023-01-23T23:53:55.579Z,53.78
2023-01-23T23:55:57.182Z,51.75
